createdAt,value
2023-01-22T00:05:02.034Z,3.65
2023-01-22T00:10:04.975Z,3.88
2023-01-22T00:15:23.758Z,3.93
2023-01-22T00:20:26.777Z,3.83
2023-01-22T00:25:29.361Z,3.82
2023-01-22T00:30:33.798Z,3.58
2023-01-22T00:35:36.410Z,3.76
2023-01-22T00:40:38.830Z,3.80
2023-01-22T00:45:41.406Z,3.89
2023-01-22T00:50:43.954Z,4.09
2023-01-22T00:55:58.139Z,4.04
2023-01-22T01:01:04.143Z,4.01
2023-01-22T01:06:16.113Z,3.96
2023-01-22T01:11:26.117Z,3.98
2023-01-22T01:16:31.533Z,4.01
2023-01-22T01:21:34.755Z,3.94
2023-01-22T01:26:39.160Z,4.12
2023-01-22T01:31:41.713Z,4.21
2023-01-22T01:36:49.249Z,3.93
2023-01-22T01:41:52.323Z,4.02
2023-01-22T01:47:05.472Z,3.98
2023-01-22T01:52:11.519Z,3.95
2023-01-22T01:57:18.196Z,4.05
2023-01-22T02:02:21.027Z,4.07
2023-01-22T02:07:24.644Z,3.99
2023-01-22T02:12:27.270Z,3.91
2023-01-22T02:17:29.971Z,3.98
2023-01-22T02:22:36.298Z,4.16
2023-01-22T02:27:38.848Z,4.21
2023-01-22T02:32:41.792Z,4.32
2023-01-22T02:37:44.453Z,4.27
2023-01-22T02:42:46.924Z,4.37
2023-01-22T02:47:49.768Z,4.39
2023-01-22T02:52:52.215Z,4.11
2023-01-22T02:57:54.694Z,4.15
2023-01-22T03:02:57.750Z,4.36
2023-01-22T03:08:00.316Z,4.25
2023-01-22T03:13:21.691Z,4.11
2023-01-22T03:18:44.282Z,4.19
2023-01-22T03:23:51.359Z,3.79
2023-01-22T03:28:54.082Z,3.75
2023-01-22T03:33:57.388Z,3.87
2023-01-22T03:39:00.499Z,4.09
2023-01-22T03:44:04.801Z,3.64
2023-01-22T03:49:14.176Z,3.59
2023-01-22T03:54:17.797Z,3.64
2023-01-22T03:59:20.559Z,3.79
2023-01-22T04:04:23.291Z,3.59
2023-01-22T04:09:26.134Z,3.57
2023-01-22T04:14:28.632Z,3.68
2023-01-22T04:19:34.228Z,3.58
2023-01-22T04:24:56.982Z,3.52
2023-01-22T04:29:59.550Z,3.66
2023-01-22T04:35:02.172Z,2.91
2023-01-22T04:40:12.811Z,2.97
2023-01-22T04:45:15.947Z,2.71
2023-01-22T04:50:24.139Z,2.84
2023-01-22T04:55:27.889Z,3.29
2023-01-22T05:00:38.417Z,3.55
2023-01-22T05:05:41.319Z,3.57
2023-01-22T05:10:43.820Z,3.47
2023-01-22T05:15:52.774Z,3.45
2023-01-22T05:20:55.581Z,3.32
2023-01-22T05:26:01.923Z,2.94
2023-01-22T05:31:14.612Z,3.17
2023-01-22T05:36:29.296Z,3.28
2023-01-22T05:41:36.136Z,3.02
2023-01-22T05:46:38.939Z,2.55
2023-01-22T05:52:00.179Z,2.43
2023-01-22T05:57:04.169Z,2.06
2023-01-22T06:02:07.065Z,2.07
2023-01-22T06:07:14.470Z,2.40
2023-01-22T06:12:18.546Z,1.64
2023-01-22T06:17:23.440Z,0.98
2023-01-22T06:22:37.404Z,1.55
2023-01-22T06:27:40.360Z,2.51
2023-01-22T06:32:42.996Z,2.78
2023-01-22T06:37:47.847Z,2.87
2023-01-22T06:42:50.415Z,2.63
2023-01-22T06:47:53.483Z,2.80
2023-01-22T06:52:55.905Z,2.83
2023-01-22T06:57:58.836Z,2.93
2023-01-22T07:03:04.922Z,2.64
2023-01-22T07:08:07.998Z,2.65
2023-01-22T07:13:10.477Z,1.65
2023-01-22T07:18:14.579Z,1.83
2023-01-22T07:23:17.096Z,1.77
2023-01-22T07:28:19.484Z,2.49
2023-01-22T07:33:21.898Z,3.20
2023-01-22T07:38:27.187Z,3.33
2023-01-22T07:43:29.651Z,3.27
2023-01-22T07:48:32.762Z,3.20
2023-01-22T07:53:35.773Z,3.11
2023-01-22T07:58:39.420Z,2.95
2023-01-22T08:03:41.810Z,3.09
2023-01-22T08:08:44.536Z,3.27
2023-01-22T08:13:47.254Z,3.30
2023-01-22T08:18:49.940Z,3.46
2023-01-22T08:23:52.431Z,3.49
2023-01-22T08:28:55.019Z,3.50
2023-01-22T08:33:59.717Z,3.11
2023-01-22T08:39:02.309Z,3.32
2023-01-22T08:44:04.996Z,3.40
2023-01-22T08:49:08.646Z,3.39
2023-01-22T08:54:11.252Z,3.50
2023-01-22T08:59:14.180Z,3.57
2023-01-22T09:04:16.692Z,3.74
2023-01-22T09:09:19.101Z,3.48
2023-01-22T09:14:21.544Z,3.70
2023-01-22T09:19:24.257Z,4.03
2023-01-22T09:24:26.920Z,4.42
2023-01-22T09:29:29.485Z,4.19
2023-01-22T09:34:31.928Z,4.52
2023-01-22T09:39:34.650Z,4.12
2023-01-22T09:44:47.728Z,4.16
2023-01-22T09:49:58.983Z,4.33
2023-01-22T09:55:01.647Z,4.21
2023-01-22T10:00:04.710Z,4.62
2023-01-22T10:05:17.064Z,4.52
2023-01-22T10:10:22.540Z,4.58
2023-01-22T10:15:25.724Z,4.66
2023-01-22T10:20:28.767Z,4.65
2023-01-22T10:25:31.239Z,4.31
2023-01-22T10:30:35.627Z,4.43
2023-01-22T10:35:49.853Z,4.61
2023-01-22T10:41:03.759Z,4.40
2023-01-22T10:46:26.672Z,4.78
2023-01-22T10:51:41.391Z,4.87
2023-01-22T10:56:44.375Z,4.87
2023-01-22T11:01:48.925Z,4.81
2023-01-22T11:06:59.994Z,4.86
2023-01-22T11:12:16.123Z,4.33
2023-01-22T11:17:44.854Z,4.52
2023-01-22T11:23:10.877Z,4.73
2023-01-22T11:28:41.779Z,5.08
2023-01-22T11:34:08.181Z,5.41
2023-01-22T11:39:28.532Z,5.36
2023-01-22T11:44:39.808Z,5.56
2023-01-22T11:50:19.819Z,5.53
2023-01-22T11:55:43.913Z,5.45
2023-01-22T12:01:11.461Z,5.45
2023-01-22T12:06:31.924Z,5.56
2023-01-22T12:11:48.654Z,5.60
2023-01-22T12:17:06.135Z,5.55
2023-01-22T12:22:27.429Z,5.64
2023-01-22T12:27:39.103Z,5.43
2023-01-22T12:32:46.017Z,5.58
2023-01-22T12:38:07.194Z,5.67
2023-01-22T12:43:10.130Z,5.42
2023-01-22T12:48:39.205Z,5.56
2023-01-22T12:53:41.754Z,5.77
2023-01-22T12:58:44.288Z,5.97
2023-01-22T13:03:59.356Z,5.73
2023-01-22T13:09:02.957Z,5.73
2023-01-22T13:14:18.983Z,5.66
2023-01-22T13:19:24.687Z,5.79
2023-01-22T13:24:27.230Z,5.80
2023-01-22T13:29:34.072Z,5.82
2023-01-22T13:34:36.653Z,5.87
2023-01-22T13:39:39.424Z,5.93
2023-01-22T13:44:47.928Z,5.78
2023-01-22T13:49:50.319Z,5.77
2023-01-22T13:54:59.150Z,5.83
2023-01-22T14:00:04.089Z,5.86
2023-01-22T14:05:23.301Z,5.82
2023-01-22T14:10:26.474Z,5.87
2023-01-22T14:15:29.521Z,5.86
2023-01-22T14:20:31.973Z,5.94
2023-01-22T14:25:39.432Z,5.88
2023-01-22T14:30:41.994Z,5.94
2023-01-22T14:35:44.577Z,6.00
2023-01-22T14:40:47.456Z,5.86
2023-01-22T14:45:49.963Z,5.78
2023-01-22T14:50:52.623Z,5.80
2023-01-22T14:55:55.096Z,5.90
2023-01-22T15:00:57.586Z,5.86
2023-01-22T15:06:00.150Z,5.95
2023-01-22T15:11:03.213Z,5.93
2023-01-22T15:16:10.488Z,5.85
2023-01-22T15:21:13.069Z,5.90
2023-01-22T15:26:35.475Z,5.82
2023-01-22T15:31:38.888Z,5.90
2023-01-22T15:36:41.382Z,5.91
2023-01-22T15:41:44.368Z,5.87
2023-01-22T15:46:47.342Z,5.87
2023-01-22T15:51:49.766Z,5.75
2023-01-22T15:56:52.274Z,5.68
2023-01-22T16:01:54.794Z,5.81
2023-01-22T16:06:57.460Z,5.84
2023-01-22T16:12:00.185Z,5.91
2023-01-22T16:17:02.689Z,5.92
2023-01-22T16:22:05.644Z,5.66
2023-01-22T16:27:08.677Z,5.64
2023-01-22T16:32:11.203Z,5.85
2023-01-22T16:37:13.788Z,5.87
2023-01-22T16:42:16.249Z,5.86
2023-01-22T16:47:19.356Z,5.65
2023-01-22T16:52:23.180Z,5.75
2023-01-22T16:57:25.803Z,5.81
2023-01-22T17:02:28.383Z,5.84
2023-01-22T17:07:33.976Z,6.00
2023-01-22T17:12:37.030Z,5.88
2023-01-22T17:17:40.027Z,5.84
2023-01-22T17:22:42.713Z,5.92
2023-01-22T17:27:45.121Z,5.98
2023-01-22T17:32:47.865Z,5.95
2023-01-22T17:37:51.067Z,5.71
2023-01-22T17:42:53.683Z,5.47
2023-01-22T17:47:56.246Z,5.72
2023-01-22T17:52:58.885Z,5.83
2023-01-22T17:58:01.817Z,5.81
2023-01-22T18:03:05.044Z,5.86
2023-01-22T18:08:07.873Z,5.78
2023-01-22T18:13:10.410Z,5.82
2023-01-22T18:18:13.359Z,5.93
2023-01-22T18:23:16.687Z,5.84
2023-01-22T18:28:19.515Z,5.72
2023-01-22T18:33:22.305Z,5.69
2023-01-22T18:38:26.612Z,5.73
2023-01-22T18:43:29.039Z,5.58
2023-01-22T18:48:31.723Z,5.66
2023-01-22T18:53:35.656Z,5.67
2023-01-22T18:58:39.158Z,5.74
2023-01-22T19:03:45.202Z,5.80
2023-01-22T19:08:54.348Z,5.63
2023-01-22T19:13:58.664Z,5.66
2023-01-22T19:19:04.086Z,5.67
2023-01-22T19:24:08.723Z,5.78
2023-01-22T19:29:19.947Z,5.76
2023-01-22T19:34:24.830Z,5.62
2023-01-22T19:39:27.660Z,5.65
2023-01-22T19:44:30.968Z,5.44
2023-01-22T19:49:33.474Z,5.60
2023-01-22T19:54:40.640Z,5.67
2023-01-22T19:59:43.432Z,5.79
2023-01-22T20:04:45.832Z,5.69
2023-01-22T20:09:49.012Z,5.56
2023-01-22T20:14:51.523Z,5.64
2023-01-22T20:19:53.986Z,5.70
2023-01-22T20:24:56.674Z,5.66
2023-01-22T20:29:59.364Z,5.71
2023-01-22T20:35:01.829Z,5.83
2023-01-22T20:40:04.480Z,5.84
2023-01-22T20:45:07.747Z,5.88
2023-01-22T20:50:11.077Z,5.88
2023-01-22T20:55:15.599Z,5.74
2023-01-22T21:00:18.570Z,5.79
2023-01-22T21:05:21.277Z,5.87
2023-01-22T21:10:23.840Z,5.81
2023-01-22T21:15:26.436Z,5.63
2023-01-22T21:20:29.056Z,5.71
2023-01-22T21:25:34.261Z,5.67
2023-01-22T21:30:37.190Z,5.46
2023-01-22T21:35:39.844Z,5.51
2023-01-22T21:40:42.314Z,5.42
2023-01-22T21:46:03.718Z,5.47
2023-01-22T21:51:06.380Z,5.57
2023-01-22T21:56:09.161Z,5.50
2023-01-22T22:01:15.975Z,5.49
2023-01-22T22:06:18.538Z,5.51
2023-01-22T22:11:21.288Z,5.49
2023-01-22T22:16:24.254Z,5.45
2023-01-22T22:21:26.929Z,5.37
2023-01-22T22:26:29.462Z,5.36
2023-01-22T22:31:32.317Z,5.38
2023-01-22T22:36:35.380Z,5.40
2023-01-22T22:41:38.934Z,5.41
2023-01-22T22:46:41.592Z,5.40
2023-01-22T22:51:45.582Z,5.40
2023-01-22T22:56:49.337Z,5.33
2023-01-22T23:01:52.356Z,5.38
2023-01-22T23:06:54.993Z,5.42
2023-01-22T23:12:01.059Z,5.38
2023-01-22T23:17:04.812Z,5.47
2023-01-22T23:22:07.389Z,5.49
2023-01-22T23:27:09.993Z,5.50
2023-01-22T23:32:12.639Z,5.66
2023-01-22T23:37:15.056Z,5.42
2023-01-22T23:42:18.257Z,5.40
2023-01-22T23:47:20.937Z,5.32
2023-01-22T23:52:23.378Z,5.10
2023-01-22T23:57:25.800Z,5.22
